Time;durP1;ratioP1;P1;durP2;ratioP2;P2;SDS_P1;SDS_P2;PMS_P1;PMS_P2;Temp;Humidity;BMP_temperature;BMP_pressure;BME280_temperature;BME280_humidity;BME280_pressure;Samples;Min_cycle;Max_cycle;Signal;HPM_P1;HPM_P2
2023/09/09 00:01:06;;;;;;;30.90;24.98;;;20.50;99.90;;;;;;5078627;28;20075;-69
2023/09/09 00:03:32;;;;;;;28.20;24.45;;;22.60;99.90;;;;;;5111981;28;20040;-69
2023/09/09 00:05:58;;;;;;;29.60;24.80;;;20.60;99.90;;;;;;5112592;28;20047;-69
2023/09/09 00:08:24;;;;;;;34.10;26.08;;;22.30;99.90;;;;;;5111449;28;20563;-69
2023/09/09 00:10:49;;;;;;;30.08;24.15;;;22.10;99.90;;;;;;5113057;28;20036;-69
2023/09/09 00:13:15;;;;;;;31.63;24.30;;;22.40;99.90;;;;;;5113667;28;20086;-69
2023/09/09 00:15:42;;;;;;;29.05;24.10;;;21.50;99.90;;;;;;5094872;28;20484;-68
2023/09/09 00:18:08;;;;;;;29.05;23.50;;;;;;;;;;5062239;28;20035;-69
2023/09/09 00:20:40;;;;;;;29.77;24.30;;;21.70;99.90;;;;;;5095354;28;20126;-69
2023/09/09 00:23:09;;;;;;;29.52;24.10;;;20.20;99.90;;;;;;5094977;28;20081;-69
2023/09/09 00:25:36;;;;;;;28.67;24.20;;;22.40;99.90;;;;;;5096420;28;20042;-69
2023/09/09 00:28:03;;;;;;;32.05;25.35;;;22.30;99.90;;;;;;5099012;28;20046;-69
2023/09/09 00:30:29;;;;;;;33.28;25.60;;;22.30;99.90;;;;;;5098889;28;20038;-68
2023/09/09 00:32:55;;;;;;;30.30;25.52;;;21.00;99.90;;;;;;5082089;28;20048;-70
2023/09/09 00:35:22;;;;;;;33.55;25.40;;;22.10;99.90;;;;;;5098868;28;20056;-70
2023/09/09 00:37:47;;;;;;;33.67;27.20;;;21.70;99.90;;;;;;5081662;28;20485;-70
2023/09/09 00:40:13;;;;;;;31.02;24.65;;;;;;;;;;5098645;28;20045;-70
2023/09/09 00:42:39;;;;;;;32.20;26.85;;;;;;;;;;5099030;28;20123;-70
2023/09/09 00:45:05;;;;;;;33.42;26.67;;;20.80;99.90;;;;;;5098489;28;20124;-70
2023/09/09 00:47:32;;;;;;;30.92;25.30;;;21.40;99.90;;;;;;5098537;28;20055;-70
2023/09/09 00:49:58;;;;;;;35.58;26.67;;;21.10;99.90;;;;;;5098845;28;20126;-70
2023/09/09 00:52:24;;;;;;;35.03;26.52;;;20.00;99.90;;;;;;5081458;28;20039;-70
2023/09/09 00:54:50;;;;;;;31.33;25.35;;;20.50;99.90;;;;;;5098757;28;20103;-70
2023/09/09 00:57:19;;;;;;;36.95;27.55;;;21.70;99.90;;;;;;5098441;28;20388;-70
2023/09/09 00:59:46;;;;;;;35.30;27.50;;;20.40;99.90;;;;;;5116667;28;20044;-70
2023/09/09 01:02:12;;;;;;;32.88;25.40;;;19.90;99.90;;;;;;5081594;28;20036;-70
2023/09/09 01:04:38;;;;;;;33.40;26.00;;;21.40;99.90;;;;;;5081249;28;20051;-70
2023/09/09 01:07:05;;;;;;;30.55;24.50;;;21.20;99.90;;;;;;5098434;28;20043;-70
2023/09/09 01:09:31;;;;;;;33.58;26.75;;;21.20;99.90;;;;;;5098632;28;20043;-70
2023/09/09 01:11:58;;;;;;;39.90;30.60;;;21.80;99.90;;;;;;5098429;28;20507;-70
2023/09/09 01:14:24;;;;;;;37.63;27.65;;;21.40;99.90;;;;;;5098334;28;20043;-70
2023/09/09 01:16:52;;;;;;;34.53;27.65;;;21.30;99.90;;;;;;5098072;28;20054;-70
2023/09/09 01:19:21;;;;;;;33.90;28.42;;;21.50;99.90;;;;;;5098559;28;20079;-70
2023/09/09 01:21:47;;;;;;;32.97;27.00;;;21.70;99.90;;;;;;5097755;28;20051;-70
2023/09/09 01:24:15;;;;;;;31.65;25.55;;;21.60;99.90;;;;;;5116214;28;20345;-70
2023/09/09 01:26:42;;;;;;;38.60;29.38;;;20.50;99.90;;;;;;5098228;28;20091;-70
2023/09/09 01:29:07;;;;;;;38.95;29.13;;;19.80;99.90;;;;;;5081122;28;20122;-70
2023/09/09 01:31:33;;;;;;;37.97;27.77;;;20.60;99.90;;;;;;5080919;28;20127;-70
2023/09/09 01:33:59;;;;;;;35.75;28.73;;;21.30;99.90;;;;;;5080868;28;20043;-70
2023/09/09 01:36:25;;;;;;;32.83;27.15;;;19.50;99.90;;;;;;5097080;28;20062;-70
2023/09/09 01:38:51;;;;;;;40.58;27.98;;;;;;;;;;5063753;28;20384;-70
2023/09/09 01:41:16;;;;;;;34.55;27.08;;;20.00;99.90;;;;;;5081043;28;20373;-70
2023/09/09 01:43:42;;;;;;;33.75;27.50;;;;;;;;;;5080564;28;20047;-70
2023/09/09 01:46:08;;;;;;;35.80;27.70;;;20.30;99.90;;;;;;5097656;28;20436;-70
2023/09/09 01:48:34;;;;;;;33.70;27.13;;;19.30;99.90;;;;;;5080570;28;20134;-70
2023/09/09 01:51:00;;;;;;;38.72;29.83;;;21.10;99.90;;;;;;5097650;28;20070;-70
2023/09/09 01:53:25;;;;;;;35.88;26.25;;;20.80;99.90;;;;;;5115589;28;20407;-70
2023/09/09 01:55:51;;;;;;;33.58;26.45;;;;;;;;;;5047062;28;20139;-70
2023/09/09 01:58:17;;;;;;;35.20;29.65;;;21.10;99.90;;;;;;5097215;28;20039;-70
2023/09/09 02:00:43;;;;;;;37.33;27.67;;;19.20;99.90;;;;;;5080298;28;20046;-70
2023/09/09 02:03:09;;;;;;;33.88;26.63;;;;;;;;;;5063508;28;20066;-70
2023/09/09 02:05:35;;;;;;;37.78;29.23;;;20.20;99.90;;;;;;5080359;28;20155;-70
2023/09/09 02:08:00;;;;;;;37.25;29.73;;;21.30;99.90;;;;;;5097236;28;20140;-70
2023/09/09 02:10:27;;;;;;;35.00;29.02;;;;;;;;;;5115273;28;20548;-70
2023/09/09 02:12:52;;;;;;;36.88;28.70;;;19.60;99.90;;;;;;5096950;28;20043;-70
2023/09/09 02:15:18;;;;;;;42.83;30.02;;;19.60;99.90;;;;;;5080318;28;20069;-70
2023/09/09 02:17:46;;;;;;;37.08;29.08;;;20.20;99.90;;;;;;5097041;28;20386;-70
2023/09/09 02:20:12;;;;;;;37.67;29.70;;;20.40;99.90;;;;;;5096884;28;20066;-70
2023/09/09 02:22:38;;;;;;;37.22;29.30;;;21.30;99.90;;;;;;5080163;28;20093;-70
2023/09/09 02:25:05;;;;;;;37.33;29.13;;;21.20;99.90;;;;;;5096560;28;20054;-70
2023/09/09 02:27:30;;;;;;;41.15;29.48;;;19.90;99.90;;;;;;5096928;28;20031;-70
2023/09/09 02:29:56;;;;;;;36.90;28.27;;;21.20;99.90;;;;;;5096536;28;20057;-70
2023/09/09 02:32:22;;;;;;;34.10;26.80;;;19.10;99.90;;;;;;5096528;28;20043;-70
2023/09/09 02:34:48;;;;;;;34.92;27.30;;;;;;;;;;5096358;28;20044;-70
2023/09/09 02:37:21;;;;;;;39.25;28.50;;;19.70;99.90;;;;;;5079432;28;20411;-70
2023/09/09 02:39:49;;;;;;;39.83;28.02;;;19.10;99.90;;;;;;5096497;28;20491;-70
2023/09/09 02:42:20;;;;;;;33.17;26.88;;;19.90;99.90;;;;;;5114691;28;20043;-70
2023/09/09 02:44:46;;;;;;;33.50;26.98;;;20.10;99.90;;;;;;5096229;28;20043;-70
2023/09/09 02:47:13;;;;;;;32.28;26.17;;;18.80;99.90;;;;;;5096053;28;20040;-70
2023/09/09 02:49:39;;;;;;;33.08;25.85;;;19.50;99.90;;;;;;5095271;28;20092;-70
2023/09/09 02:52:06;;;;;;;32.90;26.33;;;19.70;99.90;;;;;;5096272;28;20054;-70
2023/09/09 02:54:33;;;;;;;35.97;25.92;;;20.00;99.90;;;;;;5096242;28;20050;-70
2023/09/09 02:56:59;;;;;;;32.83;25.67;;;18.70;99.90;;;;;;5114489;28;20121;-70
2023/09/09 02:59:25;;;;;;;33.55;26.50;;;20.80;99.90;;;;;;5095994;28;20071;-70
2023/09/09 03:01:51;;;;;;;32.70;25.85;;;19.90;99.90;;;;;;5095989;28;20071;-75
2023/09/09 03:04:19;;;;;;;34.13;27.10;;;20.80;99.90;;;;;;5096055;28;20039;-75
2023/09/09 03:06:45;;;;;;;34.17;25.40;;;19.90;99.90;;;;;;5078981;28;20035;-75
2023/09/09 03:09:13;;;;;;;34.22;26.38;;;20.30;99.90;;;;;;5096232;28;20453;-75
2023/09/09 03:11:38;;;;;;;32.00;25.05;;;20.60;99.90;;;;;;5079561;28;20115;-75
2023/09/09 03:14:04;;;;;;;36.55;27.65;;;;;;;;;;5095787;28;20462;-76
2023/09/09 03:16:30;;;;;;;34.03;26.98;;;;;;;;;;5095800;28;20039;-75
2023/09/09 03:18:57;;;;;;;33.47;25.80;;;;;;;;;;5079033;28;20046;-75
2023/09/09 03:21:23;;;;;;;36.40;27.05;;;19.60;99.90;;;;;;5113973;28;20035;-75
2023/09/09 03:23:49;;;;;;;32.67;25.48;;;;;;;;;;5095633;28;20118;-75
2023/09/09 03:26:18;;;;;;;31.92;25.20;;;;;;;;;;5095927;28;20395;-75
2023/09/09 03:28:47;;;;;;;33.35;24.98;;;19.70;99.90;;;;;;5079254;28;20062;-75
2023/09/09 03:31:13;;;;;;;32.97;23.73;;;20.70;99.90;;;;;;5079178;28;20096;-75
2023/09/09 03:33:40;;;;;;;33.53;24.80;;;19.90;99.90;;;;;;5101902;28;20039;-75
2023/09/09 03:36:07;;;;;;;30.60;23.58;;;20.10;99.90;;;;;;5109619;28;20059;-75
2023/09/09 03:38:33;;;;;;;30.67;23.88;;;18.60;99.90;;;;;;5086943;28;20056;-74
2023/09/09 03:40:59;;;;;;;27.55;21.58;;;18.60;99.90;;;;;;5106164;28;20400;-75
2023/09/09 03:43:25;;;;;;;31.40;23.75;;;18.50;99.90;;;;;;5097732;28;20044;-75
2023/09/09 03:45:55;;;;;;;28.92;22.52;;;20.10;99.90;;;;;;5102337;28;20404;-75
2023/09/09 03:48:21;;;;;;;25.52;21.85;;;;;;;;;;5101991;28;20036;-75
2023/09/09 03:50:47;;;;;;;30.40;23.73;;;20.30;99.90;;;;;;5107298;28;20040;-75
2023/09/09 03:53:13;;;;;;;28.08;22.33;;;;;;;;;;5108830;28;20063;-75
2023/09/09 03:55:39;;;;;;;28.05;22.45;;;;;;;;;;5108730;28;20104;-75
2023/09/09 03:58:05;;;;;;;31.63;22.50;;;;;;;;;;5110105;28;20095;-75
2023/09/09 04:00:31;;;;;;;27.52;21.17;;;;;;;;;;5112024;28;20118;-75
2023/09/09 04:02:57;;;;;;;27.25;22.17;;;19.90;99.90;;;;;;5100847;28;20064;-75
2023/09/09 04:05:24;;;;;;;27.08;20.55;;;19.60;99.90;;;;;;5096170;28;20051;-75
2023/09/09 04:07:50;;;;;;;29.27;22.23;;;19.90;99.90;;;;;;5079375;28;20043;-75
2023/09/09 04:10:17;;;;;;;29.42;22.30;;;20.00;99.90;;;;;;5079704;28;20044;-75
2023/09/09 04:12:42;;;;;;;29.58;22.30;;;20.00;99.90;;;;;;5097134;28;20043;-75
2023/09/09 04:15:10;;;;;;;27.63;21.27;;;19.10;99.90;;;;;;5095875;28;20097;-75
2023/09/09 04:17:36;;;;;;;32.33;23.58;;;18.40;99.90;;;;;;5097271;28;20119;-75
2023/09/09 04:20:03;;;;;;;30.52;23.45;;;18.70;99.90;;;;;;5096069;28;20075;-75
2023/09/09 04:22:29;;;;;;;30.13;23.35;;;;;;;;;;5096089;28;20036;-75
2023/09/09 04:24:55;;;;;;;31.95;23.95;;;20.00;99.90;;;;;;5095584;28;20040;-75
2023/09/09 04:27:21;;;;;;;32.90;23.98;;;;;;;;;;5095604;28;20039;-75
2023/09/09 04:29:47;;;;;;;31.48;23.92;;;18.30;99.90;;;;;;5095767;28;20039;-75
2023/09/09 04:32:13;;;;;;;34.58;23.58;;;18.90;99.90;;;;;;5078622;28;20040;-75
2023/09/09 04:34:39;;;;;;;30.67;23.52;;;20.00;99.90;;;;;;5095346;28;20044;-75
2023/09/09 04:37:05;;;;;;;31.55;23.20;;;18.50;99.90;;;;;;5095045;28;20055;-75
2023/09/09 04:39:31;;;;;;;26.08;21.52;;;18.00;99.90;;;;;;5078409;28;20052;-75
2023/09/09 04:41:57;;;;;;;33.63;22.90;;;;;;;;;;5095338;28;20055;-75
2023/09/09 04:44:23;;;;;;;26.27;20.35;;;17.90;99.90;;;;;;5095172;28;20044;-75
2023/09/09 04:46:49;;;;;;;27.17;22.58;;;;;;;;;;5095525;28;20456;-70
2023/09/09 04:49:17;;;;;;;28.20;22.55;;;;;;;;;;5095559;28;20096;-69
2023/09/09 04:51:43;;;;;;;28.27;20.80;;;17.70;99.90;;;;;;5095346;28;20044;-69
2023/09/09 04:54:09;;;;;;;32.25;24.02;;;19.40;99.90;;;;;;5095273;28;20073;-75
2023/09/09 04:56:35;;;;;;;27.77;22.60;;;17.60;99.90;;;;;;5078566;28;20051;-69
2023/09/09 04:59:01;;;;;;;28.55;21.77;;;;;;;;;;5095527;28;20496;-70
2023/09/09 05:01:27;;;;;;;34.63;23.52;;;;;;;;;;5095426;28;20040;-69
2023/09/09 05:03:53;;;;;;;37.17;22.92;;;17.70;99.90;;;;;;5095199;28;20093;-69
2023/09/09 05:06:18;;;;;;;31.55;23.00;;;19.60;99.90;;;;;;5078123;28;20432;-70
2023/09/09 05:08:46;;;;;;;38.13;26.25;;;19.70;99.90;;;;;;5095021;28;20043;-70
2023/09/09 05:11:12;;;;;;;29.83;23.02;;;19.80;99.90;;;;;;5095867;28;20040;-70
2023/09/09 05:13:37;;;;;;;29.27;23.98;;;19.80;99.90;;;;;;5060659;28;20449;-69
2023/09/09 05:16:03;;;;;;;32.38;25.48;;;19.90;99.90;;;;;;5095944;28;20047;-70
2023/09/09 05:18:29;;;;;;;31.88;24.90;;;;;;;;;;5094765;28;20040;-70
2023/09/09 05:20:55;;;;;;;31.05;24.13;;;;;;;;;;5094795;28;20043;-70
2023/09/09 05:23:21;;;;;;;31.27;23.55;;;;;;;;;;5077652;28;20040;-70
2023/09/09 05:25:48;;;;;;;34.22;25.63;;;19.30;99.90;;;;;;5078204;28;20036;-70
2023/09/09 05:28:14;;;;;;;30.85;22.40;;;;;;;;;;5077931;28;20036;-70
2023/09/09 05:30:40;;;;;;;32.78;26.15;;;19.00;99.90;;;;;;5094814;28;20036;-70
2023/09/09 05:33:06;;;;;;;40.13;27.15;;;17.60;99.90;;;;;;5094534;28;20040;-70
2023/09/09 05:35:32;;;;;;;33.78;26.65;;;;;;;;;;5094640;28;20048;-70
2023/09/09 05:37:58;;;;;;;34.42;26.17;;;18.70;99.90;;;;;;5094091;28;20056;-70
2023/09/09 05:40:24;;;;;;;36.67;27.10;;;19.80;99.90;;;;;;5077492;28;20082;-70
2023/09/09 05:42:50;;;;;;;38.97;28.40;;;;;;;;;;5094404;28;20040;-70
2023/09/09 05:45:16;;;;;;;34.30;27.17;;;19.80;99.90;;;;;;5094331;28;20052;-70
2023/09/09 05:47:45;;;;;;;33.65;26.38;;;;;;;;;;5094288;28;20046;-70
2023/09/09 05:50:11;;;;;;;37.85;27.23;;;18.70;99.90;;;;;;5094215;28;20192;-70
2023/09/09 05:52:37;;;;;;;34.05;25.85;;;17.80;99.90;;;;;;5077340;28;20052;-70
2023/09/09 05:55:04;;;;;;;32.50;23.98;;;19.80;99.90;;;;;;5093974;28;20042;-70
2023/09/09 05:57:32;;;;;;;32.08;24.50;;;18.80;99.90;;;;;;5093958;28;20048;-70
2023/09/09 05:59:58;;;;;;;32.83;23.92;;;19.50;99.90;;;;;;5093780;28;20044;-70
2023/09/09 06:02:25;;;;;;;31.65;25.00;;;18.80;99.90;;;;;;5093912;28;20036;-70
2023/09/09 06:04:51;;;;;;;35.40;25.48;;;;;;;;;;5077239;28;20048;-70
2023/09/09 06:07:18;;;;;;;35.67;24.85;;;19.80;99.90;;;;;;5077277;28;20472;-70
2023/09/09 06:09:44;;;;;;;30.75;23.15;;;18.50;99.90;;;;;;5094438;28;20052;-70
2023/09/09 06:12:10;;;;;;;30.75;22.98;;;;;;;;;;5093945;28;20063;-70
2023/09/09 06:14:36;;;;;;;30.70;24.15;;;;;;;;;;5077084;28;20047;-75
2023/09/09 06:17:02;;;;;;;30.17;22.90;;;18.00;99.90;;;;;;5094022;28;20036;-75
2023/09/09 06:19:28;;;;;;;29.70;23.33;;;19.80;99.90;;;;;;5076966;28;20044;-76
2023/09/09 06:21:54;;;;;;;30.45;22.05;;;;;;;;;;5077376;28;20044;-75
2023/09/09 06:24:20;;;;;;;33.17;22.23;;;19.80;99.90;;;;;;5093790;28;20048;-75
2023/09/09 06:26:46;;;;;;;32.65;24.10;;;;;;;;;;5093843;28;20523;-75
2023/09/09 06:29:12;;;;;;;31.48;24.20;;;18.00;99.90;;;;;;5094960;28;20075;-75
2023/09/09 06:31:39;;;;;;;31.65;25.17;;;18.60;99.90;;;;;;5094053;28;20424;-75
2023/09/09 06:34:04;;;;;;;39.55;26.65;;;18.10;99.90;;;;;;5094945;28;20048;-75
2023/09/09 06:36:30;;;;;;;39.45;26.83;;;19.80;99.90;;;;;;5093889;28;20062;-75
2023/09/09 06:38:56;;;;;;;34.42;24.23;;;18.70;99.90;;;;;;5093596;28;20411;-75
2023/09/09 06:41:22;;;;;;;40.40;27.85;;;18.60;99.90;;;;;;5093782;28;20048;-75
2023/09/09 06:43:48;;;;;;;68.55;45.20;;;19.40;99.90;;;;;;5076718;28;20044;-75
2023/09/09 06:46:14;;;;;;;93.45;60.50;;;18.60;99.90;;;;;;5093809;28;20040;-75
2023/09/09 06:48:40;;;;;;;89.45;52.97;;;20.40;99.90;;;;;;5093710;28;20048;-75
2023/09/09 06:51:06;;;;;;;116.53;75.05;;;;;;;;;;5093631;28;20040;-75
2023/09/09 06:53:32;;;;;;;128.15;81.20;;;;;;;;;;5076908;28;20126;-75
2023/09/09 06:55:58;;;;;;;124.93;78.93;;;18.90;99.90;;;;;;5093456;28;20051;-75
2023/09/09 06:58:24;;;;;;;139.88;86.00;;;19.40;99.90;;;;;;5076466;28;20040;-75
2023/09/09 07:00:51;;;;;;;133.95;83.47;;;20.90;99.90;;;;;;5076716;28;20123;-70
2023/09/09 07:03:18;;;;;;;162.82;102.65;;;18.80;99.90;;;;;;5093343;28;20063;-70
2023/09/09 07:05:44;;;;;;;150.95;96.40;;;20.90;99.90;;;;;;5093518;28;20032;-75
2023/09/09 07:08:10;;;;;;;179.75;112.35;;;;;;;;;;5093052;28;20119;-75
2023/09/09 07:10:36;;;;;;;207.55;126.43;;;20.50;99.90;;;;;;5093124;28;20047;-75
2023/09/09 07:13:03;;;;;;;206.68;122.85;;;19.60;99.90;;;;;;5093359;28;20036;-77
2023/09/09 07:15:29;;;;;;;204.13;123.10;;;21.00;99.90;;;;;;5093476;28;20036;-77
2023/09/09 07:17:55;;;;;;;213.60;127.45;;;19.50;99.90;;;;;;5093703;28;20074;-77
2023/09/09 07:20:21;;;;;;;220.13;126.55;;;21.30;99.90;;;;;;5093337;28;20036;-77
2023/09/09 07:22:47;;;;;;;202.10;121.68;;;21.10;99.90;;;;;;5077409;28;20044;-77
2023/09/09 07:25:13;;;;;;;210.43;125.65;;;20.70;99.90;;;;;;5076193;28;20055;-77
2023/09/09 07:27:39;;;;;;;203.30;124.15;;;;;;;;;;5093953;28;20052;-76
2023/09/09 07:30:07;;;;;;;193.35;118.43;;;21.10;99.90;;;;;;5095499;28;20055;-77
2023/09/09 07:32:33;;;;;;;188.98;118.00;;;21.40;99.90;;;;;;5095563;28;20036;-77
2023/09/09 07:35:03;;;;;;;187.52;116.18;;;21.10;99.90;;;;;;5093900;28;20066;-71
2023/09/09 07:37:29;;;;;;;177.95;111.95;;;20.80;99.90;;;;;;5103454;28;20060;-73
2023/09/09 07:39:57;;;;;;;168.93;105.93;;;21.60;99.90;;;;;;5110535;28;20076;-71
2023/09/09 07:42:23;;;;;;;156.40;98.45;;;;;;;;;;5106949;28;20043;-71
2023/09/09 07:44:49;;;;;;;156.02;100.20;;;;;;;;;;5097349;28;20047;-70
2023/09/09 07:47:15;;;;;;;149.20;97.40;;;19.90;99.90;;;;;;5094563;28;20557;-71
2023/09/09 07:49:41;;;;;;;149.07;97.45;;;;;;;;;;5112317;28;20048;-71
2023/09/09 07:52:07;;;;;;;148.38;95.03;;;20.30;99.90;;;;;;5088414;28;20511;-70
2023/09/09 07:54:33;;;;;;;142.32;89.15;;;21.00;99.90;;;;;;5092119;28;20039;-71
2023/09/09 07:56:59;;;;;;;130.13;87.82;;;;;;;;;;5091897;28;20040;-70
2023/09/09 07:59:28;;;;;;;117.13;78.32;;;21.40;99.90;;;;;;5075275;28;20044;-70
2023/09/09 08:01:55;;;;;;;116.55;76.47;;;21.90;99.90;;;;;;5076226;28;20168;-70
2023/09/09 08:04:21;;;;;;;101.07;69.10;;;;;;;;;;5091880;28;20044;-71
2023/09/09 08:06:47;;;;;;;100.68;69.53;;;;;;;;;;5091880;28;20043;-70
2023/09/09 08:09:13;;;;;;;112.03;72.70;;;22.10;99.90;;;;;;5074984;28;20548;-70
2023/09/09 08:11:39;;;;;;;101.57;66.75;;;;;;;;;;5075201;28;20059;-70
2023/09/09 08:14:05;;;;;;;96.13;64.93;;;21.10;99.90;;;;;;5091623;28;20059;-71
2023/09/09 08:16:31;;;;;;;83.85;56.83;;;21.00;99.90;;;;;;5091841;28;20040;-71
2023/09/09 08:19:00;;;;;;;85.47;59.03;;;21.20;99.90;;;;;;5091969;28;20101;-70
2023/09/09 08:21:26;;;;;;;80.32;54.15;;;22.60;99.90;;;;;;5091786;28;20063;-70
2023/09/09 08:23:52;;;;;;;75.85;49.80;;;20.80;99.90;;;;;;5074942;28;20048;-71
2023/09/09 08:26:18;;;;;;;84.82;53.00;;;22.30;99.90;;;;;;5091983;28;20044;-71
2023/09/09 08:28:44;;;;;;;62.85;43.05;;;22.50;99.90;;;;;;5091370;28;20404;-71
2023/09/09 08:31:09;;;;;;;72.75;44.70;;;22.70;99.90;;;;;;5091614;28;20062;-71
2023/09/09 08:33:35;;;;;;;58.92;41.28;;;22.80;99.90;;;;;;5091681;28;20123;-76
2023/09/09 08:36:05;;;;;;;62.83;41.40;;;21.50;99.90;;;;;;5091991;28;20040;-75
2023/09/09 08:38:31;;;;;;;68.18;43.70;;;21.70;99.90;;;;;;5091429;28;20051;-77
2023/09/09 08:41:21;;;;;;;59.20;38.90;;;22.40;99.90;;;;;;5091417;28;20044;-77
2023/09/09 08:44:03;;;;;;;67.97;45.40;;;22.60;99.90;;;;;;5091118;28;20488;-71
2023/09/09 08:46:29;;;;;;;;;;;22.40;99.90;;;;;;5093293;28;20135;-70
2023/09/09 08:48:57;;;;;;;62.67;43.22;;;22.40;99.90;;;;;;5094945;28;20291;-71
2023/09/09 08:51:30;;;;;;;58.97;42.05;;;22.30;99.90;;;;;;5095252;28;20118;-70
2023/09/09 08:53:57;;;;;;;63.28;42.47;;;23.00;99.90;;;;;;5095087;28;20119;-71
2023/09/09 08:56:23;;;;;;;53.67;38.53;;;23.30;99.90;;;;;;5096150;28;20036;-77
2023/09/09 08:58:49;;;;;;;60.28;42.38;;;23.40;99.90;;;;;;5078039;28;20051;-76
2023/09/09 09:01:15;;;;;;;59.22;41.47;;;23.40;99.90;;;;;;5095993;28;20046;-77
2023/09/09 09:03:42;;;;;;;55.33;39.42;;;23.00;99.90;;;;;;5095012;28;20492;-77
2023/09/09 09:06:09;;;;;;;55.53;38.60;;;23.50;99.90;;;;;;5078190;28;20047;-77
2023/09/09 09:08:35;;;;;;;57.97;40.72;;;22.70;99.90;;;;;;5094951;28;20078;-77
2023/09/09 09:11:03;;;;;;;62.65;41.33;;;23.20;99.90;;;;;;5078218;28;20071;-78
2023/09/09 09:13:33;;;;;;;55.42;36.78;;;23.30;99.40;;;;;;5095279;28;20116;-77
2023/09/09 09:16:00;;;;;;;57.40;36.70;;;22.80;99.90;;;;;;5095226;28;20043;-71
2023/09/09 09:18:26;;;;;;;48.10;32.72;;;24.00;99.90;;;;;;5094749;28;20404;-71
2023/09/09 09:20:53;;;;;;;50.55;34.70;;;22.60;99.90;;;;;;5094728;28;20492;-71
2023/09/09 09:23:19;;;;;;;44.55;31.30;;;24.20;99.90;;;;;;5095915;28;20135;-71
2023/09/09 09:25:47;;;;;;;37.95;26.48;;;24.10;99.80;;;;;;5078023;28;20032;-71
2023/09/09 09:28:14;;;;;;;32.72;22.73;;;23.00;99.90;;;;;;5094583;28;20036;-77
2023/09/09 09:30:40;;;;;;;40.50;24.92;;;24.10;98.70;;;;;;5094676;28;20071;-78
2023/09/09 09:33:06;;;;;;;33.15;23.67;;;;;;;;;;5094686;28;20043;-78
2023/09/09 09:35:36;;;;;;;33.47;22.27;;;23.90;98.40;;;;;;5094322;28;20044;-77
2023/09/09 09:38:07;;;;;;;35.20;23.75;;;24.60;98.60;;;;;;5094247;28;20063;-71
2023/09/09 09:40:34;;;;;;;33.53;22.00;;;24.70;99.40;;;;;;5094270;28;20136;-71
2023/09/09 09:43:00;;;;;;;29.98;22.13;;;24.70;99.90;;;;;;5094164;28;20043;-71
2023/09/09 09:45:27;;;;;;;29.85;20.85;;;23.80;99.90;;;;;;5094407;28;20039;-71
2023/09/09 09:47:54;;;;;;;34.47;23.88;;;24.30;99.90;;;;;;5094172;28;20097;-71
2023/09/09 09:50:28;;;;;;;35.78;21.92;;;24.80;99.90;;;;;;5094199;28;20046;-70
2023/09/09 09:52:58;;;;;;;26.25;20.35;;;25.00;99.90;;;;;;5077219;28;20123;-71
2023/09/09 09:55:25;;;;;;;28.95;21.67;;;24.20;99.90;;;;;;5095278;28;20139;-71
2023/09/09 09:57:55;;;;;;;28.90;22.45;;;24.90;99.90;;;;;;5093532;28;20036;-71
2023/09/09 10:00:21;;;;;;;31.67;21.58;;;25.00;99.90;;;;;;5094091;28;20040;-71
2023/09/09 10:02:52;;;;;;;30.42;19.65;;;24.80;96.60;;;;;;5077316;28;20059;-71
2023/09/09 10:05:21;;;;;;;27.25;17.48;;;25.20;99.90;;;;;;5094122;28;20122;-71
2023/09/09 10:07:56;;;;;;;25.25;17.40;;;25.30;99.90;;;;;;5094248;28;20067;-72
2023/09/09 10:10:25;;;;;;;26.23;18.45;;;25.00;96.80;;;;;;5095204;28;20047;-71
2023/09/09 10:13:18;;;;;;;21.17;16.65;;;24.80;94.90;;;;;;5093655;28;20110;-71
2023/09/09 10:15:47;;;;;;;20.17;15.20;;;25.50;99.40;;;;;;5093777;28;20040;-71
2023/09/09 10:18:13;;;;;;;16.45;12.60;;;25.60;99.40;;;;;;5076954;28;20050;-71
2023/09/09 10:20:39;;;;;;;15.98;12.23;;;25.10;99.40;;;;;;5093680;28;20048;-71
2023/09/09 10:23:06;;;;;;;20.35;12.43;;;25.00;98.80;;;;;;5093419;28;20051;-71
2023/09/09 10:25:32;;;;;;;18.10;14.25;;;;;;;;;;5093426;28;20040;-71
2023/09/09 10:27:59;;;;;;;16.05;12.38;;;25.80;98.20;;;;;;5076494;28;20434;-71
2023/09/09 10:30:27;;;;;;;15.68;11.13;;;25.30;98.10;;;;;;5093230;28;20040;-71
2023/09/09 10:32:54;;;;;;;15.48;12.20;;;26.10;95.70;;;;;;5076731;28;20492;-71
2023/09/09 10:35:20;;;;;;;16.23;10.93;;;;;;;;;;5093281;28;20055;-71
2023/09/09 10:37:50;;;;;;;17.40;11.70;;;25.70;94.20;;;;;;5092959;28;20060;-71
2023/09/09 10:40:17;;;;;;;21.92;10.18;;;25.40;93.60;;;;;;5093189;28;20520;-75
2023/09/09 10:42:44;;;;;;;15.38;10.48;;;25.70;96.80;;;;;;5076248;28;20040;-76
2023/09/09 10:45:23;;;;;;;13.73;11.40;;;25.10;96.50;;;;;;5092977;28;20518;-77
2023/09/09 10:48:10;;;;;;;18.90;11.57;;;25.60;96.30;;;;;;5093455;28;20039;-77
2023/09/09 10:50:46;;;;;;;16.65;10.77;;;26.10;96.30;;;;;;5093372;28;20036;-77
2023/09/09 10:53:31;;;;;;;16.40;11.23;;;25.90;96.70;;;;;;5093049;28;20050;-77
2023/09/09 10:56:17;;;;;;;18.30;10.43;;;25.60;92.60;;;;;;5092797;28;20040;-78
2023/09/09 10:58:44;;;;;;;12.38;9.73;;;26.40;96.50;;;;;;5092337;28;20488;-71
2023/09/09 11:01:23;;;;;;;17.48;10.75;;;26.30;96.10;;;;;;5059513;28;20044;-71
2023/09/09 11:03:49;;;;;;;21.25;11.80;;;26.60;95.80;;;;;;5092866;28;20063;-72
2023/09/09 11:06:27;;;;;;;16.92;11.05;;;26.20;95.80;;;;;;5092896;28;20496;-71
2023/09/09 11:09:02;;;;;;;15.10;11.55;;;25.70;95.70;;;;;;5075603;28;20083;-71
2023/09/09 11:11:37;;;;;;;15.98;11.25;;;25.90;95.90;;;;;;5092104;28;20032;-71
2023/09/09 11:14:10;;;;;;;15.05;10.98;;;26.60;95.80;;;;;;5092773;28;20044;-77
2023/09/09 11:16:36;;;;;;;15.88;12.07;;;;;;;;;;5094438;28;20446;-77
2023/09/09 11:19:04;;;;;;;17.63;12.10;;;26.20;91.70;;;;;;5092708;28;20032;-77
2023/09/09 11:21:39;;;;;;;22.23;13.38;;;27.10;91.80;;;;;;5092817;28;20032;-71
2023/09/09 11:24:06;;;;;;;16.45;11.77;;;26.60;95.00;;;;;;5092329;28;20047;-71
2023/09/09 11:26:32;;;;;;;14.57;10.85;;;26.80;95.30;;;;;;5058600;28;20044;-70
2023/09/09 11:28:59;;;;;;;13.43;8.95;;;26.80;95.00;;;;;;5075305;28;20040;-70
2023/09/09 11:31:24;;;;;;;11.30;9.05;;;27.00;95.00;;;;;;5092260;28;20097;-70
2023/09/09 11:33:54;;;;;;;18.83;9.45;;;26.30;94.70;;;;;;5075279;28;20071;-70
2023/09/09 11:36:20;;;;;;;15.95;10.10;;;;;;;;;;5092032;28;20052;-70
2023/09/09 11:38:46;;;;;;;13.88;9.10;;;26.30;94.20;;;;;;5092093;28;20048;-71
2023/09/09 11:41:19;;;;;;;11.80;8.48;;;27.20;94.50;;;;;;5092475;28;20044;-70
2023/09/09 11:43:56;;;;;;;13.73;9.30;;;27.10;94.30;;;;;;5092311;28;20040;-70
2023/09/09 11:46:21;;;;;;;14.73;7.60;;;26.50;94.30;;;;;;5092240;28;20086;-71
2023/09/09 11:48:48;;;;;;;12.77;8.90;;;;;;;;;;5092637;28;20067;-71
2023/09/09 11:51:14;;;;;;;10.38;8.02;;;27.40;92.70;;;;;;5114054;28;20062;-71
2023/09/09 11:53:40;;;;;;;12.95;9.13;;;27.20;90.40;;;;;;5115102;28;20028;-70
2023/09/09 11:56:05;;;;;;;13.77;7.68;;;27.20;93.70;;;;;;5114678;28;20059;-76
2023/09/09 11:58:39;;;;;;;11.25;7.88;;;27.50;93.40;;;;;;5115005;28;20071;-77
2023/09/09 12:01:05;;;;;;;9.05;7.85;;;27.40;93.30;;;;;;5114614;28;20027;-77
2023/09/09 12:03:31;;;;;;;10.52;7.47;;;27.10;93.30;;;;;;5116037;28;20040;-77
2023/09/09 12:05:57;;;;;;;9.88;7.05;;;27.70;93.00;;;;;;5112812;28;20576;-73
2023/09/09 12:08:24;;;;;;;9.05;7.38;;;26.90;92.40;;;;;;5086821;28;20043;-76
2023/09/09 12:10:50;;;;;;;10.32;6.70;;;;;;;;;;5101860;28;20047;-76
2023/09/09 12:13:16;;;;;;;9.30;6.93;;;27.80;92.70;;;;;;5101885;28;20040;-76
2023/09/09 12:15:43;;;;;;;9.07;7.00;;;27.80;91.10;;;;;;5102335;28;20040;-76
2023/09/09 12:18:13;;;;;;;18.52;8.18;;;27.40;92.30;;;;;;5084150;28;20044;-77
2023/09/09 12:20:59;;;;;;;8.32;7.15;;;27.90;92.30;;;;;;5094668;28;20051;-76
2023/09/09 12:23:30;;;;;;;10.50;7.93;;;27.20;91.90;;;;;;5097634;28;20484;-76
2023/09/09 12:25:56;;;;;;;12.50;7.28;;;27.70;92.10;;;;;;5098795;28;20518;-76
2023/09/09 12:28:22;;;;;;;11.10;7.40;;;27.90;92.10;;;;;;5079364;28;20040;-77
2023/09/09 12:30:50;;;;;;;10.82;6.80;;;28.00;91.80;;;;;;5096146;28;20059;-77
2023/09/09 12:33:17;;;;;;;7.97;7.15;;;28.00;91.80;;;;;;5095980;28;20040;-71
2023/09/09 12:35:45;;;;;;;12.70;8.23;;;27.50;91.30;;;;;;5095997;28;20044;-71
2023/09/09 12:38:11;;;;;;;9.05;7.63;;;27.70;85.30;;;;;;5078864;28;20048;-71
2023/09/09 12:41:01;;;;;;;13.38;8.48;;;28.10;91.30;;;;;;5079073;28;20127;-71
2023/09/09 12:43:27;;;;;;;10.95;8.25;;;28.20;90.70;;;;;;5095314;28;20069;-71
2023/09/09 12:45:53;;;;;;;9.93;7.43;;;;;;;;;;5095473;28;20052;-71